Time;durP1;ratioP1;P1;durP2;ratioP2;P2;SDS_P1;SDS_P2;PMS_P1;PMS_P2;Temp;Humidity;BMP_temperature;BMP_pressure;BME280_temperature;BME280_humidity;BME280_pressure;Samples;Min_cycle;Max_cycle;Signal;HPM_P1;HPM_P2
2022/09/15 00:02:17;;;;;;;10.05;5.47;;;19.30;99.90;;;;;;4850775;29;20033;-95
2022/09/15 00:04:44;;;;;;;7.55;5.85;;;19.30;99.90;;;;;;4865991;29;20025;-94
2022/09/15 00:07:11;;;;;;;8.88;5.82;;;19.30;99.90;;;;;;4850893;29;20127;-93
2022/09/15 00:09:40;;;;;;;9.93;6.00;;;19.30;99.90;;;;;;4865546;29;20025;-93
2022/09/15 00:12:07;;;;;;;8.40;5.60;;;19.30;99.90;;;;;;4850160;29;20037;-94
2022/09/15 00:14:36;;;;;;;10.55;5.90;;;19.30;99.90;;;;;;4865610;29;20514;-94
2022/09/15 00:17:03;;;;;;;9.40;5.60;;;19.30;99.90;;;;;;4849887;29;20049;-94
2022/09/15 00:19:33;;;;;;;9.07;5.45;;;19.20;99.90;;;;;;4877074;29;20052;-94
2022/09/15 00:22:00;;;;;;;8.02;5.25;;;19.30;99.90;;;;;;4883826;29;20048;-93
2022/09/15 00:24:26;;;;;;;11.10;6.57;;;19.30;99.90;;;;;;4884012;29;20443;-93
2022/09/15 00:26:53;;;;;;;8.32;5.60;;;19.20;99.90;;;;;;4884737;29;20029;-93
2022/09/15 00:29:22;;;;;;;10.15;6.03;;;19.30;99.90;;;;;;4883807;29;20032;-94
2022/09/15 00:31:49;;;;;;;9.93;5.78;;;19.20;99.90;;;;;;4883896;29;20391;-93
2022/09/15 00:34:15;;;;;;;9.88;5.22;;;19.20;99.90;;;;;;4884030;29;20039;-93
2022/09/15 00:36:42;;;;;;;7.10;4.95;;;19.20;99.90;;;;;;4883695;29;20068;-94
2022/09/15 00:39:08;;;;;;;8.73;5.60;;;19.20;99.90;;;;;;4884179;29;20042;-93
2022/09/15 00:41:37;;;;;;;11.02;5.35;;;19.20;99.90;;;;;;4883868;29;20111;-94
2022/09/15 00:44:26;;;;;;;7.95;5.72;;;19.20;99.90;;;;;;4883907;29;20505;-94
2022/09/15 00:46:55;;;;;;;6.82;4.60;;;19.20;99.90;;;;;;4884320;29;20029;-94
2022/09/15 00:49:28;;;;;;;10.25;5.20;;;19.20;99.90;;;;;;4883940;29;20025;-93
2022/09/15 00:52:13;;;;;;;8.70;5.57;;;19.20;99.90;;;;;;4883629;29;20036;-92
2022/09/15 00:55:01;;;;;;;7.25;5.00;;;19.20;99.90;;;;;;4883507;29;20036;-94
2022/09/15 00:57:36;;;;;;;9.25;5.80;;;19.20;99.90;;;;;;4883570;29;20128;-92
2022/09/15 01:00:11;;;;;;;8.40;5.28;;;19.10;99.90;;;;;;4884974;29;20036;-93
2022/09/15 01:02:41;;;;;;;6.80;4.90;;;19.20;99.90;;;;;;4886237;29;20060;-94
2022/09/15 01:05:11;;;;;;;8.70;5.18;;;19.10;99.90;;;;;;4885308;29;20475;-93
2022/09/15 01:07:47;;;;;;;8.18;5.50;;;19.10;99.90;;;;;;4884419;29;20502;-93
2022/09/15 01:10:40;;;;;;;8.82;5.00;;;19.10;99.90;;;;;;4883871;29;20489;-93
2022/09/15 01:13:10;;;;;;;10.27;5.60;;;19.10;99.90;;;;;;4859439;29;20052;-94
2022/09/15 01:16:15;;;;;;;9.82;5.22;;;19.10;99.90;;;;;;4883821;29;20032;-93
2022/09/15 01:18:59;;;;;;;7.03;5.07;;;19.10;99.90;;;;;;4867588;29;20044;-92
2022/09/15 01:21:32;;;;;;;8.20;5.82;;;19.10;99.90;;;;;;4867796;29;20284;-94
2022/09/15 01:24:29;;;;;;;8.80;5.75;;;19.10;99.90;;;;;;4883028;29;20033;-95
2022/09/15 01:26:55;;;;;;;7.40;4.93;;;19.10;99.90;;;;;;4867847;29;20036;-93
2022/09/15 01:30:01;;;;;;;8.15;5.57;;;19.10;99.90;;;;;;4883307;29;20032;-94
2022/09/15 01:35:23;;;;;;;9.25;5.22;;;19.10;99.90;;;;;;4883076;29;20033;-94
2022/09/15 01:37:57;;;;;;;7.20;5.47;;;19.10;99.90;;;;;;4882735;29;20049;-94
2022/09/15 01:40:29;;;;;;;7.00;5.10;;;19.10;99.90;;;;;;4883515;29;20028;-93
2022/09/15 01:42:57;;;;;;;7.97;5.47;;;19.10;99.90;;;;;;4883368;29;20036;-95
2022/09/15 01:45:31;;;;;;;6.60;5.18;;;19.10;99.90;;;;;;4883317;29;20036;-93
2022/09/15 01:48:00;;;;;;;6.78;5.20;;;19.10;99.90;;;;;;4884288;29;20048;-93
2022/09/15 01:50:32;;;;;;;11.73;5.50;;;19.10;99.90;;;;;;4887625;29;20036;-93
2022/09/15 01:53:02;;;;;;;8.23;5.18;;;19.10;99.90;;;;;;4885529;29;20497;-92
2022/09/15 01:56:06;;;;;;;8.45;5.32;;;19.00;99.90;;;;;;4882985;29;20040;-95
2022/09/15 01:58:33;;;;;;;7.90;5.18;;;19.00;99.90;;;;;;4826666;29;20145;-95
2022/09/15 02:01:12;;;;;;;6.63;5.25;;;19.00;99.90;;;;;;4811761;29;20075;-93
2022/09/15 02:03:50;;;;;;;7.45;5.55;;;18.90;99.90;;;;;;4842181;29;20046;-94
2022/09/15 02:06:39;;;;;;;7.45;5.60;;;18.90;99.90;;;;;;4842125;29;20504;-94
2022/09/15 02:09:14;;;;;;;6.45;5.20;;;18.90;99.90;;;;;;4812141;29;20046;-94
2022/09/15 02:12:00;;;;;;;7.97;5.28;;;18.90;99.90;;;;;;4842200;29;20113;-95
2022/09/15 02:15:04;;;;;;;7.97;5.22;;;18.90;99.90;;;;;;4841678;29;20030;-95
2022/09/15 02:17:34;;;;;;;9.13;5.55;;;18.90;99.90;;;;;;4823565;29;20071;-92
2022/09/15 02:20:19;;;;;;;5.53;4.88;;;18.90;99.90;;;;;;4805376;29;20409;-95
2022/09/15 02:22:54;;;;;;;6.45;5.05;;;18.90;99.90;;;;;;4793602;29;20049;-93
2022/09/15 02:25:50;;;;;;;7.75;5.38;;;18.90;99.90;;;;;;4794591;29;20047;-93
2022/09/15 02:28:22;;;;;;;7.60;5.50;;;18.90;99.90;;;;;;4809326;29;20062;-94
2022/09/15 02:30:53;;;;;;;6.60;4.80;;;18.90;99.90;;;;;;4795290;29;20068;-93
2022/09/15 02:33:23;;;;;;;7.63;5.40;;;18.90;99.90;;;;;;4794959;29;20035;-94
2022/09/15 02:35:51;;;;;;;5.93;5.32;;;18.90;99.90;;;;;;4783326;29;20514;-94
2022/09/15 02:38:20;;;;;;;6.30;4.90;;;18.90;99.90;;;;;;4810466;29;20043;-94
2022/09/15 02:40:47;;;;;;;6.63;4.57;;;18.90;99.90;;;;;;4795808;29;20035;-93
2022/09/15 02:43:18;;;;;;;6.07;4.85;;;19.00;99.90;;;;;;4810302;29;20062;-95
2022/09/15 02:45:44;;;;;;;8.18;5.32;;;18.90;99.90;;;;;;4794825;29;20114;-92
2022/09/15 02:48:11;;;;;;;7.53;5.28;;;18.90;99.90;;;;;;4795563;29;20122;-93
2022/09/15 02:50:38;;;;;;;8.63;5.72;;;18.90;99.90;;;;;;4793621;29;20031;-92
2022/09/15 02:53:04;;;;;;;7.68;5.15;;;18.90;99.90;;;;;;4809141;29;20036;-94
2022/09/15 02:55:31;;;;;;;7.03;4.80;;;18.90;99.90;;;;;;4867190;29;20032;-92
2022/09/15 02:57:58;;;;;;;9.20;5.85;;;18.90;99.90;;;;;;4867021;29;20037;-92
2022/09/15 03:00:29;;;;;;;8.23;5.72;;;18.90;99.90;;;;;;4866905;29;20037;-93
2022/09/15 03:02:57;;;;;;;9.57;5.47;;;18.90;99.90;;;;;;4866731;29;20546;-93
2022/09/15 03:05:29;;;;;;;10.18;5.70;;;18.90;99.90;;;;;;4866897;29;20093;-93
2022/09/15 03:07:56;;;;;;;9.18;6.20;;;18.90;99.90;;;;;;4866795;29;20025;-93
2022/09/15 03:10:24;;;;;;;8.20;5.40;;;18.80;99.90;;;;;;4866690;29;20051;-93
2022/09/15 03:12:52;;;;;;;7.47;5.07;;;18.90;99.90;;;;;;4868883;29;20033;-93
2022/09/15 03:15:24;;;;;;;6.78;5.30;;;18.90;99.90;;;;;;4867137;29;20032;-93
2022/09/15 03:17:53;;;;;;;10.23;5.32;;;18.90;99.90;;;;;;4866708;29;20053;-94
2022/09/15 03:20:23;;;;;;;9.05;6.10;;;18.90;99.90;;;;;;4869377;29;20132;-95
2022/09/15 03:22:50;;;;;;;15.45;6.95;;;18.90;99.90;;;;;;4869799;29;20092;-94
2022/09/15 03:25:17;;;;;;;8.90;5.43;;;18.90;99.90;;;;;;4893791;23;20053;-92
2022/09/15 03:27:45;;;;;;;10.48;5.65;;;18.90;99.90;;;;;;4881793;29;20037;-93
2022/09/15 03:30:13;;;;;;;8.60;5.55;;;18.90;99.90;;;;;;4882063;29;20033;-92
2022/09/15 03:32:39;;;;;;;9.20;5.70;;;18.90;99.90;;;;;;4848243;29;20037;-93
2022/09/15 03:35:07;;;;;;;10.75;6.50;;;18.90;99.90;;;;;;4848260;29;20049;-92
2022/09/15 03:37:34;;;;;;;8.48;5.43;;;18.90;99.90;;;;;;4849058;29;20101;-93
2022/09/15 03:40:02;;;;;;;9.55;5.68;;;18.90;99.90;;;;;;4848244;29;20033;-93
2022/09/15 03:42:29;;;;;;;11.18;6.13;;;18.90;99.90;;;;;;4847432;29;20120;-92
2022/09/15 03:44:55;;;;;;;6.57;5.53;;;18.90;99.90;;;;;;4847893;29;20025;-93
2022/09/15 03:47:22;;;;;;;11.10;5.45;;;19.00;99.90;;;;;;4848361;29;20064;-92
2022/09/15 03:49:48;;;;;;;6.47;5.05;;;19.00;99.90;;;;;;4848216;29;20032;-94
2022/09/15 03:52:15;;;;;;;13.40;5.72;;;19.10;99.90;;;;;;4848857;29;20034;-93
2022/09/15 03:54:54;;;;;;;9.95;5.72;;;19.10;99.90;;;;;;4853574;29;20154;-93
2022/09/15 03:57:21;;;;;;;8.25;5.43;;;19.10;99.90;;;;;;4847183;29;20040;-92
2022/09/15 03:59:47;;;;;;;8.18;4.50;;;19.10;99.90;;;;;;4847342;29;20552;-93
2022/09/15 04:02:20;;;;;;;7.07;4.60;;;19.10;99.90;;;;;;4848782;29;20034;-92
2022/09/15 04:04:48;;;;;;;11.30;5.18;;;19.10;99.90;;;;;;4847498;29;20033;-92
2022/09/15 04:07:15;;;;;;;6.88;5.10;;;19.10;99.90;;;;;;4848994;29;20026;-93
2022/09/15 04:09:41;;;;;;;9.45;5.47;;;19.10;99.90;;;;;;4857127;29;20040;-93
2022/09/15 04:12:08;;;;;;;7.47;4.88;;;19.10;99.90;;;;;;4847461;29;20034;-92
2022/09/15 04:14:35;;;;;;;8.98;4.43;;;19.10;99.90;;;;;;4846737;29;20029;-91
2022/09/15 04:17:09;;;;;;;8.18;5.28;;;19.20;99.90;;;;;;4846907;29;20499;-92
2022/09/15 04:19:36;;;;;;;8.13;4.90;;;19.20;99.90;;;;;;4846943;29;20465;-93
2022/09/15 04:22:02;;;;;;;10.27;4.68;;;19.20;99.90;;;;;;4846811;29;20128;-92
2022/09/15 04:24:29;;;;;;;6.80;4.50;;;19.20;99.90;;;;;;4849925;29;20377;-93
2022/09/15 04:26:55;;;;;;;7.15;4.90;;;19.20;99.90;;;;;;4849767;29;20120;-91
2022/09/15 04:29:25;;;;;;;4.25;3.80;;;19.20;99.90;;;;;;4850953;29;20048;-93
2022/09/15 04:31:52;;;;;;;6.00;4.07;;;19.30;99.90;;;;;;4850480;29;20100;-93
2022/09/15 04:34:18;;;;;;;5.22;3.83;;;19.30;99.90;;;;;;4852671;29;20033;-92
2022/09/15 04:36:48;;;;;;;8.95;4.25;;;19.30;99.90;;;;;;4855782;29;20041;-92
2022/09/15 04:39:15;;;;;;;6.40;4.70;;;19.30;99.90;;;;;;4854643;29;20029;-93
2022/09/15 04:41:42;;;;;;;7.68;4.97;;;19.40;99.90;;;;;;4847560;29;20060;-91
2022/09/15 04:44:17;;;;;;;5.95;4.60;;;19.60;99.90;;;;;;4855226;29;20036;-93
2022/09/15 04:46:44;;;;;;;10.48;4.68;;;19.70;99.90;;;;;;4856040;29;20037;-92
2022/09/15 04:49:20;;;;;;;8.63;4.45;;;19.90;99.90;;;;;;4851421;29;20061;-94
2022/09/15 04:51:46;;;;;;;5.22;3.30;;;20.00;99.90;;;;;;4836530;29;20029;-93
2022/09/15 04:54:12;;;;;;;7.50;4.00;;;20.00;99.90;;;;;;4842336;29;20124;-92
2022/09/15 04:57:22;;;;;;;8.75;4.10;;;20.10;99.90;;;;;;4861483;29;20102;-94
2022/09/15 04:59:52;;;;;;;8.75;4.40;;;20.30;99.90;;;;;;4804917;29;20053;-93
2022/09/15 05:02:29;;;;;;;4.65;3.47;;;20.40;99.90;;;;;;4804760;29;20035;-94
2022/09/15 05:05:01;;;;;;;7.05;3.75;;;20.60;99.90;;;;;;4806124;29;20071;-93
2022/09/15 05:07:30;;;;;;;6.13;3.50;;;20.80;99.90;;;;;;4803269;29;20042;-94
2022/09/15 05:10:04;;;;;;;5.00;3.30;;;20.90;99.90;;;;;;4773799;29;20038;-93
2022/09/15 05:12:34;;;;;;;6.90;3.72;;;21.10;99.90;;;;;;4803630;29;20037;-93
2022/09/15 05:15:16;;;;;;;4.95;3.50;;;21.30;99.90;;;;;;4802231;29;20067;-95
2022/09/15 05:17:48;;;;;;;4.93;3.25;;;21.70;99.90;;;;;;4807337;29;20122;-90
2022/09/15 05:20:22;;;;;;;9.65;2.80;;;22.30;99.90;;;;;;4806223;29;20046;-93
2022/09/15 05:22:49;;;;;;;6.20;2.92;;;23.00;99.90;;;;;;4802185;29;20041;-92
2022/09/15 05:25:16;;;;;;;6.25;3.13;;;23.40;99.90;;;;;;4802952;29;20053;-94
2022/09/15 05:30:18;;;;;;;3.78;3.47;;;24.30;99.90;;;;;;4879140;29;20121;-83
2022/09/15 05:32:45;;;;;;;4.60;4.00;;;24.80;99.90;;;;;;4850090;29;20048;-85
2022/09/15 05:35:11;;;;;;;10.15;5.13;;;25.20;99.90;;;;;;4812760;29;20070;-84
2022/09/15 05:37:37;;;;;;;5.40;4.90;;;25.70;99.90;;;;;;4833244;29;20041;-83
2022/09/15 05:40:04;;;;;;;5.72;5.22;;;25.90;99.90;;;;;;4831860;29;20045;-84
2022/09/15 05:42:30;;;;;;;6.57;6.10;;;26.00;99.90;;;;;;4815094;29;20063;-87
2022/09/15 05:44:57;;;;;;;8.50;6.90;;;26.20;99.90;;;;;;4831437;29;20480;-84
2022/09/15 05:47:23;;;;;;;8.30;7.50;;;26.60;99.90;;;;;;4817312;29;20034;-87
2022/09/15 05:49:49;;;;;;;9.13;8.20;;;26.80;99.90;;;;;;4830922;29;20034;-87
2022/09/15 05:52:16;;;;;;;10.38;7.82;;;27.00;99.90;;;;;;4834569;29;20030;-86
2022/09/15 05:54:46;;;;;;;9.20;7.75;;;27.00;99.90;;;;;;4831416;29;20034;-88
2022/09/15 05:57:12;;;;;;;8.90;7.95;;;27.10;99.90;;;;;;4831066;29;20049;-88
2022/09/15 05:59:40;;;;;;;8.45;7.68;;;27.10;99.90;;;;;;4832707;29;20044;-89
2022/09/15 06:02:10;;;;;;;8.48;6.80;;;27.30;99.90;;;;;;4833592;29;20037;-88
2022/09/15 06:04:36;;;;;;;7.25;5.57;;;28.10;99.90;;;;;;4833603;29;20512;-89
2022/09/15 06:07:03;;;;;;;5.85;5.45;;;28.20;99.90;;;;;;4833591;29;20036;-89
2022/09/15 06:09:29;;;;;;;7.00;5.72;;;28.20;99.90;;;;;;4833491;29;20517;-89
2022/09/15 06:11:56;;;;;;;5.70;5.20;;;28.60;99.90;;;;;;4834372;29;20429;-88
2022/09/15 06:14:23;;;;;;;6.47;6.00;;;28.70;99.90;;;;;;4848879;29;20488;-89
2022/09/15 06:16:49;;;;;;;6.40;6.00;;;28.80;99.90;;;;;;4863640;29;20161;-89
2022/09/15 06:19:16;;;;;;;6.50;6.00;;;28.50;99.90;;;;;;4832299;29;20057;-87
2022/09/15 06:21:42;;;;;;;6.80;6.30;;;28.70;99.90;;;;;;4832169;29;20117;-89
2022/09/15 06:24:11;;;;;;;7.07;6.40;;;29.10;99.90;;;;;;4833137;29;20029;-88
2022/09/15 06:26:37;;;;;;;7.82;7.20;;;29.60;99.90;;;;;;4832983;29;20066;-88
2022/09/15 06:29:05;;;;;;;7.75;7.25;;;29.50;99.90;;;;;;4848182;29;20050;-88
2022/09/15 06:31:32;;;;;;;8.40;7.60;;;29.50;99.90;;;;;;4864609;29;20037;-88
2022/09/15 06:33:59;;;;;;;8.32;7.80;;;29.60;99.90;;;;;;4848255;29;20037;-86
2022/09/15 06:36:30;;;;;;;9.02;8.20;;;29.50;99.90;;;;;;4833041;29;20033;-87
2022/09/15 06:52:20;;;;;;;10.60;9.70;;;30.50;99.90;;;;;;5587237;23;20068;-90
2022/09/15 07:11:13;;;;;;;10.88;10.27;;;30.90;99.90;;;;;;5937952;23;21367;-91
2022/09/15 07:13:40;;;;;;;11.30;10.60;;;30.60;99.90;;;;;;4868859;29;20045;-91
2022/09/15 07:16:08;;;;;;;11.48;10.77;;;30.90;99.90;;;;;;4853453;29;20547;-85
2022/09/15 07:18:35;;;;;;;11.88;10.82;;;30.60;99.90;;;;;;4852516;29;20048;-89
2022/09/15 07:21:05;;;;;;;11.50;10.68;;;30.70;99.90;;;;;;4853116;29;20055;-89
2022/09/15 07:23:33;;;;;;;12.65;11.55;;;31.20;99.90;;;;;;4869647;29;20017;-90
2022/09/15 07:26:26;;;;;;;12.20;11.27;;;31.40;99.90;;;;;;4852032;29;20476;-89
2022/09/15 07:29:03;;;;;;;12.90;12.00;;;31.60;99.90;;;;;;4867041;29;20064;-89
2022/09/15 07:31:33;;;;;;;13.75;12.13;;;31.40;99.90;;;;;;4852436;29;20029;-89
2022/09/15 07:34:01;;;;;;;12.60;11.57;;;31.20;99.90;;;;;;4866498;29;20426;-88
2022/09/15 07:36:28;;;;;;;12.57;11.48;;;31.10;99.90;;;;;;4850793;29;20025;-89
2022/09/15 07:38:55;;;;;;;12.30;11.35;;;31.00;99.90;;;;;;4851383;29;20033;-88
2022/09/15 07:41:24;;;;;;;12.38;11.55;;;30.80;99.90;;;;;;4850821;29;20483;-89
2022/09/15 07:43:54;;;;;;;13.13;12.23;;;30.90;99.90;;;;;;4866383;29;20029;-88
2022/09/15 07:46:22;;;;;;;12.93;12.02;;;31.00;99.90;;;;;;4865967;29;20543;-88
2022/09/15 07:48:51;;;;;;;13.00;12.20;;;31.00;99.90;;;;;;4849625;29;20064;-87
2022/09/15 07:51:20;;;;;;;12.88;11.85;;;30.90;99.90;;;;;;4864584;29;20116;-87
2022/09/15 07:53:47;;;;;;;12.77;11.98;;;31.20;99.90;;;;;;4853858;29;20096;-87
2022/09/15 07:56:16;;;;;;;13.00;12.10;;;31.10;99.90;;;;;;4876486;29;20047;-87
2022/09/15 07:58:43;;;;;;;13.38;12.32;;;31.00;99.90;;;;;;4862888;29;20096;-88
2022/09/15 08:01:10;;;;;;;12.95;11.95;;;30.90;99.90;;;;;;4863689;29;20032;-87
2022/09/15 08:03:45;;;;;;;12.43;11.63;;;30.80;99.90;;;;;;4852669;29;20111;-88
2022/09/15 08:06:12;;;;;;;11.70;11.10;;;31.00;99.90;;;;;;4851672;29;20045;-88
2022/09/15 08:08:40;;;;;;;12.88;11.98;;;30.90;99.90;;;;;;4851476;29;20052;-87
2022/09/15 08:11:13;;;;;;;13.20;12.20;;;30.60;99.90;;;;;;4850785;29;20033;-87
2022/09/15 08:13:40;;;;;;;12.88;11.85;;;31.10;99.90;;;;;;4865921;29;20041;-87
2022/09/15 08:16:13;;;;;;;12.55;11.73;;;31.50;99.90;;;;;;4850489;29;20120;-87
2022/09/15 08:18:41;;;;;;;13.70;12.45;;;31.90;99.90;;;;;;4850404;29;20068;-87
2022/09/15 08:21:10;;;;;;;13.40;12.50;;;32.20;99.90;;;;;;4848866;29;20032;-86
2022/09/15 08:23:37;;;;;;;12.80;11.88;;;32.50;99.90;;;;;;4865916;29;20040;-88
2022/09/15 08:26:11;;;;;;;13.15;12.35;;;32.40;99.90;;;;;;4865257;29;20088;-87
2022/09/15 08:28:38;;;;;;;13.23;12.35;;;32.60;99.90;;;;;;4851729;29;20097;-86
2022/09/15 08:31:07;;;;;;;13.00;12.20;;;32.60;99.90;;;;;;4852359;29;20427;-88
2022/09/15 08:33:34;;;;;;;13.15;12.25;;;32.00;99.90;;;;;;4851326;29;20040;-87
2022/09/15 08:36:03;;;;;;;13.32;12.43;;;31.90;99.90;;;;;;4850507;29;20056;-88
2022/09/15 08:38:31;;;;;;;12.20;11.48;;;31.60;99.90;;;;;;4851238;29;20499;-87
2022/09/15 08:41:16;;;;;;;12.88;11.93;;;31.30;99.90;;;;;;4850520;29;20025;-87
2022/09/15 08:43:52;;;;;;;12.38;11.48;;;31.60;99.90;;;;;;4850797;29;20033;-86
2022/09/15 08:46:25;;;;;;;12.52;11.82;;;31.30;99.90;;;;;;4849537;29;20029;-85
2022/09/15 08:49:22;;;;;;;13.43;12.20;;;31.60;99.90;;;;;;4880539;29;20049;-84
2022/09/15 08:51:50;;;;;;;12.90;12.07;;;31.90;99.90;;;;;;4827524;29;20041;-82
2022/09/15 08:54:23;;;;;;;12.50;11.70;;;31.80;99.90;;;;;;4863849;29;20444;-82
2022/09/15 08:56:50;;;;;;;12.88;11.70;;;31.90;99.90;;;;;;4880539;29;20108;-84
2022/09/15 08:59:18;;;;;;;13.32;12.10;;;31.80;99.90;;;;;;4848289;29;20064;-84
2022/09/15 09:01:59;;;;;;;13.25;12.10;;;31.80;99.90;;;;;;4848390;29;20519;-86
2022/09/15 09:04:35;;;;;;;13.40;12.38;;;32.00;99.90;;;;;;4863594;29;20100;-86
2022/09/15 09:07:39;;;;;;;12.52;11.57;;;32.20;99.90;;;;;;4863830;29;20448;-84
2022/09/15 09:10:30;;;;;;;12.98;11.63;;;32.40;99.90;;;;;;4880888;29;20471;-88
2022/09/15 09:13:28;;;;;;;12.10;11.30;;;32.60;99.90;;;;;;4863528;29;20412;-85
2022/09/15 09:16:04;;;;;;;12.43;11.52;;;32.40;99.90;;;;;;4789725;29;20409;-85
2022/09/15 09:18:49;;;;;;;12.23;11.35;;;31.70;99.90;;;;;;4774515;29;20110;-85
2022/09/15 09:21:49;;;;;;;12.52;11.38;;;31.50;99.90;;;;;;4789807;29;20405;-85
2022/09/15 09:24:24;;;;;;;13.13;12.05;;;31.40;99.90;;;;;;4787689;29;20474;-85
2022/09/15 09:26:54;;;;;;;12.45;11.40;;;31.80;99.90;;;;;;4804988;29;20491;-85
2022/09/15 09:29:35;;;;;;;12.23;11.40;;;31.80;99.90;;;;;;4789332;29;20035;-83
2022/09/15 09:32:09;;;;;;;12.13;11.32;;;31.40;99.90;;;;;;4804500;29;20489;-84
2022/09/15 09:34:46;;;;;;;12.05;11.20;;;31.70;99.90;;;;;;4804546;29;20039;-85
2022/09/15 09:37:15;;;;;;;12.20;11.50;;;31.90;99.90;;;;;;4774332;29;20047;-84
2022/09/15 09:39:41;;;;;;;13.82;12.65;;;32.30;99.90;;;;;;4776245;29;20585;-91
2022/09/15 09:42:15;;;;;;;13.25;12.05;;;32.40;99.90;;;;;;4777175;29;20058;-91
2022/09/15 09:44:42;;;;;;;13.52;12.48;;;32.50;99.90;;;;;;4791400;29;20038;-90
2022/09/15 09:47:08;;;;;;;12.60;11.90;;;32.40;99.90;;;;;;4777520;29;20046;-91
2022/09/15 09:49:44;;;;;;;13.05;12.15;;;32.40;99.90;;;;;;4780843;29;20394;-91
2022/09/15 09:52:11;;;;;;;12.57;11.68;;;32.50;99.90;;;;;;4813687;29;20047;-90
2022/09/15 09:54:38;;;;;;;13.20;12.20;;;32.50;99.90;;;;;;4853050;29;20025;-89
2022/09/15 09:57:14;;;;;;;12.35;11.43;;;32.00;99.90;;;;;;4851855;29;20101;-88
2022/09/15 09:59:45;;;;;;;13.10;11.93;;;31.80;99.90;;;;;;4849494;29;20072;-88
2022/09/15 10:02:22;;;;;;;12.85;11.60;;;32.20;99.90;;;;;;4849862;29;20040;-89
2022/09/15 10:05:06;;;;;;;12.38;11.68;;;32.40;99.90;;;;;;4864761;29;20025;-89
2022/09/15 10:07:39;;;;;;;12.40;11.52;;;32.40;99.90;;;;;;4849423;29;20036;-88
2022/09/15 10:10:17;;;;;;;12.77;11.98;;;32.30;99.90;;;;;;4849304;29;20025;-88
2022/09/15 10:12:43;;;;;;;13.20;12.35;;;32.40;99.90;;;;;;4849313;29;20053;-90
2022/09/15 10:15:32;;;;;;;13.00;11.90;;;32.00;99.90;;;;;;4849974;29;20029;-89
2022/09/15 10:18:00;;;;;;;12.93;12.15;;;31.60;99.90;;;;;;4849078;29;20053;-88
2022/09/15 10:20:45;;;;;;;14.02;12.93;;;31.60;99.90;;;;;;4849109;29;20033;-88
2022/09/15 10:23:20;;;;;;;12.70;11.90;;;31.90;99.90;;;;;;4863083;29;20152;-87
2022/09/15 10:25:48;;;;;;;13.40;12.40;;;32.40;99.90;;;;;;4862880;29;20039;-86
2022/09/15 10:28:15;;;;;;;13.10;12.40;;;32.60;99.90;;;;;;4847762;29;20050;-85
2022/09/15 10:31:22;;;;;;;13.30;12.50;;;32.40;99.90;;;;;;4862639;29;20514;-85
2022/09/15 10:33:49;;;;;;;13.25;12.25;;;32.60;99.90;;;;;;4862518;29;20032;-85
2022/09/15 10:36:33;;;;;;;12.90;12.25;;;32.30;99.90;;;;;;4878228;29;20040;-84
2022/09/15 10:39:05;;;;;;;13.07;12.18;;;32.50;99.90;;;;;;4879596;29;20125;-86
2022/09/15 10:41:34;;;;;;;14.48;13.23;;;32.20;99.90;;;;;;4862633;29;20487;-85
2022/09/15 10:44:13;;;;;;;13.50;12.70;;;32.30;99.90;;;;;;4847533;29;20029;-86
2022/09/15 10:47:10;;;;;;;13.57;12.80;;;32.50;99.90;;;;;;4866038;29;20029;-86
2022/09/15 10:50:04;;;;;;;13.60;12.75;;;32.50;99.90;;;;;;4850609;29;20052;-85
2022/09/15 10:52:31;;;;;;;;;;;32.40;99.90;;;;;;4851026;29;20468;-86
2022/09/15 10:55:35;;;;;;;13.75;13.05;;;32.10;99.90;;;;;;4866111;29;19998;-86
2022/09/15 10:58:22;;;;;;;13.70;12.80;;;32.40;99.90;;;;;;4850411;29;20403;-85
2022/09/15 11:01:26;;;;;;;13.48;12.65;;;32.60;99.90;;;;;;4865774;29;20032;-86
2022/09/15 11:04:30;;;;;;;13.45;12.50;;;32.90;99.90;;;;;;4850489;29;20456;-84
2022/09/15 11:07:11;;;;;;;13.97;13.13;;;32.30;99.90;;;;;;4850255;29;20033;-85
2022/09/15 11:09:47;;;;;;;12.55;11.65;;;32.70;99.90;;;;;;4850168;29;20035;-82
2022/09/15 11:12:55;;;;;;;12.45;11.77;;;32.50;99.90;;;;;;4880861;29;20446;-82
2022/09/15 11:15:29;;;;;;;13.77;12.77;;;31.80;99.90;;;;;;4838649;29;20045;-83
2022/09/15 11:18:15;;;;;;;13.43;12.45;;;32.10;99.90;;;;;;4881950;29;20044;-83
2022/09/15 11:21:13;;;;;;;10.95;10.00;;;32.30;99.90;;;;;;4882456;29;20025;-84
2022/09/15 11:23:53;;;;;;;10.18;9.38;;;31.70;99.90;;;;;;4849804;29;20040;-83
2022/09/15 11:26:43;;;;;;;12.23;11.00;;;31.50;99.90;;;;;;4849854;29;20417;-84
2022/09/15 11:29:31;;;;;;;9.85;9.20;;;31.60;99.90;;;;;;4881847;29;20492;-83
2022/09/15 11:32:11;;;;;;;9.63;8.90;;;31.40;99.90;;;;;;4849616;29;20053;-83
2022/09/15 11:35:30;;;;;;;9.57;8.68;;;31.10;99.90;;;;;;4881714;29;20449;-83
2022/09/15 11:38:21;;;;;;;9.05;8.45;;;30.70;99.90;;;;;;4866169;29;20056;-83
2022/09/15 11:41:14;;;;;;;9.68;8.77;;;30.50;99.90;;;;;;4864820;29;20124;-82
2022/09/15 11:43:52;;;;;;;8.90;8.10;;;30.40;99.90;;;;;;4865094;29;20036;-82
2022/09/15 11:46:43;;;;;;;8.23;7.63;;;30.30;99.90;;;;;;4880638;29;20394;-83
2022/09/15 11:49:22;;;;;;;7.82;7.40;;;30.00;99.90;;;;;;4864994;29;20033;-83
2022/09/15 11:52:11;;;;;;;7.72;7.05;;;30.20;99.90;;;;;;4881551;29;20111;-83
2022/09/15 11:54:50;;;;;;;8.20;7.40;;;30.20;99.90;;;;;;4864544;29;20486;-84
2022/09/15 11:57:23;;;;;;;7.90;7.18;;;30.00;99.90;;;;;;4864762;29;20036;-83
2022/09/15 11:59:59;;;;;;;7.70;7.00;;;30.00;99.90;;;;;;4849270;29;20037;-82
2022/09/15 12:02:40;;;;;;;9.55;6.90;;;29.80;99.90;;;;;;4866149;29;20503;-94
2022/09/15 12:05:18;;;;;;;9.73;7.20;;;29.90;99.90;;;;;;4851208;29;20048;-93
2022/09/15 12:07:54;;;;;;;10.23;7.40;;;29.90;99.90;;;;;;4850270;29;20081;-93
2022/09/15 12:10:26;;;;;;;7.50;6.80;;;29.70;99.90;;;;;;4850318;29;20044;-94
2022/09/15 12:12:54;;;;;;;7.40;6.82;;;29.50;99.90;;;;;;4850744;29;20495;-93
2022/09/15 12:15:26;;;;;;;7.40;6.72;;;29.60;99.90;;;;;;4851695;29;20037;-94
2022/09/15 12:18:28;;;;;;;7.10;6.60;;;29.70;99.90;;;;;;4867790;29;20044;-93
2022/09/15 12:21:11;;;;;;;7.20;6.55;;;29.60;99.90;;;;;;4777831;29;20042;-94
2022/09/15 12:23:44;;;;;;;6.90;6.30;;;29.70;99.90;;;;;;4793666;29;20129;-94
2022/09/15 12:26:19;;;;;;;6.85;6.15;;;29.50;99.90;;;;;;4782322;29;20486;-93
2022/09/15 12:29:03;;;;;;;8.60;6.30;;;29.50;99.90;;;;;;4786451;29;20075;-93
2022/09/15 12:31:39;;;;;;;7.32;6.43;;;29.30;99.90;;;;;;4778583;29;20104;-93
2022/09/15 12:34:05;;;;;;;6.30;5.80;;;29.40;99.90;;;;;;4776676;29;20035;-92
2022/09/15 12:36:47;;;;;;;6.70;6.18;;;29.50;99.90;;;;;;4776917;29;20043;-92
2022/09/15 12:39:35;;;;;;;9.25;6.60;;;29.80;99.90;;;;;;4804951;29;20057;-93
2022/09/15 12:42:30;;;;;;;11.80;6.15;;;29.80;99.90;;;;;;4808611;29;20103;-93
2022/09/15 12:45:43;;;;;;;6.75;6.05;;;30.00;99.90;;;;;;4805877;29;20052;-94
2022/09/15 12:48:27;;;;;;;6.93;6.30;;;30.10;99.90;;;;;;4792277;29;20043;-93
2022/09/15 12:51:06;;;;;;;6.88;6.35;;;29.90;99.90;;;;;;4801745;29;20115;-93
2022/09/15 12:53:58;;;;;;;6.03;5.60;;;29.80;99.90;;;;;;4783235;29;20045;-94
2022/09/15 12:56:27;;;;;;;7.25;6.60;;;29.50;99.90;;;;;;4834838;29;20037;-94
2022/09/15 12:59:18;;;;;;;9.05;8.20;;;29.70;99.90;;;;;;4856891;29;20041;-93
2022/09/15 13:02:50;;;;;;;6.47;5.88;;;30.10;99.90;;;;;;4862508;29;20037;-93
2022/09/15 13:05:44;;;;;;;7.00;6.18;;;30.00;99.90;;;;;;4853220;29;20053;-93
2022/09/15 13:08:17;;;;;;;7.35;6.03;;;30.00;99.90;;;;;;4861046;29;20061;-93
2022/09/15 13:11:08;;;;;;;6.33;5.90;;;29.80;99.90;;;;;;4859175;29;20041;-93
2022/09/15 13:13:57;;;;;;;9.15;6.40;;;29.80;99.90;;;;;;4841045;29;20045;-94
2022/09/15 13:17:15;;;;;;;10.05;6.50;;;29.70;99.90;;;;;;4859653;29;20033;-93
2022/09/15 13:20:21;;;;;;;9.30;6.65;;;29.70;99.90;;;;;;4807395;29;20047;-94
2022/09/15 13:26:25;;;;;;;6.68;6.22;;;29.30;99.90;;;;;;4891046;29;20048;-94
2022/09/15 13:29:14;;;;;;;6.35;5.75;;;29.50;99.90;;;;;;4873952;29;20029;-94
2022/09/15 13:32:20;;;;;;;6.68;6.10;;;29.70;99.90;;;;;;4878232;29;20047;-93
2022/09/15 13:35:43;;;;;;;6.43;5.95;;;29.90;99.90;;;;;;4856017;29;20072;-94
2022/09/15 13:38:53;;;;;;;6.50;5.97;;;29.90;99.90;;;;;;4845841;29;20061;-94
2022/09/15 13:41:22;;;;;;;7.20;6.20;;;29.70;99.90;;;;;;4876633;29;20032;-94
2022/09/15 13:44:23;;;;;;;6.95;6.32;;;29.70;99.90;;;;;;4860649;29;20101;-94
2022/09/15 13:49:44;;;;;;;6.93;6.22;;;29.70;99.90;;;;;;4874459;29;20053;-94
2022/09/15 13:52:50;;;;;;;7.00;6.32;;;29.90;99.90;;;;;;4839215;29;20037;-92
2022/09/15 13:55:29;;;;;;;6.63;5.95;;;30.10;99.90;;;;;;4895229;23;20048;-93
2022/09/15 13:58:02;;;;;;;7.70;7.20;;;30.00;99.90;;;;;;4893901;29;20051;-93
2022/09/15 14:00:41;;;;;;;8.38;7.78;;;29.80;99.90;;;;;;4891376;29;20032;-93
2022/09/15 14:04:18;;;;;;;8.18;5.60;;;30.00;99.90;;;;;;4894904;29;20494;-93
2022/09/15 14:06:51;;;;;;;10.82;6.88;;;29.50;99.90;;;;;;4725952;30;20104;-94